createdAt,value
2022-11-09T00:01:43.171Z,100540.31
2022-11-09T00:04:13.245Z,100546.44
2022-11-09T00:06:41.974Z,100543.75
2022-11-09T00:09:11.088Z,100544.66
2022-11-09T00:11:40.162Z,100538.69
2022-11-09T00:14:16.053Z,100538.75
2022-11-09T00:16:44.882Z,100540.63
2022-11-09T00:19:14.189Z,100538.81
2022-11-09T00:21:43.061Z,100541.41
2022-11-09T00:24:12.180Z,100537.06
2022-11-09T00:26:40.843Z,100533.41
2022-11-09T00:29:11.381Z,100528.31
2022-11-09T00:31:40.166Z,100536.72
2022-11-09T00:34:09.635Z,100530.59
2022-11-09T00:36:38.306Z,100525.97
2022-11-09T00:39:10.887Z,100526.56
2022-11-09T00:41:39.592Z,100527.22
2022-11-09T00:44:09.920Z,100534.75
2022-11-09T00:46:38.852Z,100527.59
2022-11-09T00:49:08.571Z,100520.28
2022-11-09T00:51:37.340Z,100529.75
2022-11-09T00:54:08.164Z,100526.91
2022-11-09T00:56:37.208Z,100526.00
2022-11-09T00:59:06.644Z,100531.09
2022-11-09T01:01:36.756Z,100526.78
2022-11-09T01:04:07.219Z,100525.75
2022-11-09T01:06:36.232Z,100519.59
2022-11-09T01:09:05.466Z,100512.59
2022-11-09T01:11:34.255Z,100517.75
2022-11-09T01:14:03.261Z,100514.19
2022-11-09T01:16:32.002Z,100513.97
2022-11-09T01:19:02.344Z,100518.19
2022-11-09T01:21:31.234Z,100518.13
2022-11-09T01:24:02.398Z,100519.84
2022-11-09T01:26:31.754Z,100519.03
2022-11-09T01:29:00.718Z,100513.88
2022-11-09T01:31:29.418Z,100511.28
2022-11-09T01:33:58.454Z,100512.28
2022-11-09T01:36:28.507Z,100508.88
2022-11-09T01:38:57.624Z,100514.13
2022-11-09T01:41:29.720Z,100511.56
2022-11-09T01:44:12.166Z,100508.03
2022-11-09T01:46:50.777Z,100501.19
2022-11-09T01:49:37.775Z,100502.97
2022-11-09T01:52:11.730Z,100510.94
2022-11-09T01:54:45.713Z,100500.50
2022-11-09T01:57:23.538Z,100502.16
2022-11-09T01:59:59.053Z,100490.88
2022-11-09T02:02:27.814Z,100491.09
2022-11-09T02:05:04.525Z,100493.78
2022-11-09T02:07:36.401Z,100486.81
2022-11-09T02:10:15.141Z,100488.66
2022-11-09T02:12:46.531Z,100493.00
2022-11-09T02:15:16.573Z,100487.94
2022-11-09T02:17:46.500Z,100497.56
2022-11-09T02:20:18.097Z,100495.13
2022-11-09T02:22:47.339Z,100489.97
2022-11-09T02:25:18.699Z,100496.94
2022-11-09T02:27:47.915Z,100484.06
2022-11-09T02:30:18.125Z,100492.66
2022-11-09T02:32:46.855Z,100476.22
2022-11-09T02:35:17.138Z,100486.88
2022-11-09T02:37:50.423Z,100482.69
2022-11-09T02:40:27.738Z,100483.75
2022-11-09T02:42:57.899Z,100477.00
2022-11-09T02:45:26.770Z,100483.25
2022-11-09T02:47:56.390Z,100484.03
2022-11-09T02:50:26.897Z,100490.25
2022-11-09T02:52:55.439Z,100481.78
2022-11-09T02:55:25.455Z,100480.28
2022-11-09T02:57:54.024Z,100475.00
2022-11-09T03:00:23.159Z,100478.44
2022-11-09T03:02:52.309Z,100488.75
2022-11-09T03:05:21.787Z,100482.66
2022-11-09T03:07:51.860Z,100474.91
2022-11-09T03:10:20.689Z,100491.31
2022-11-09T03:12:49.295Z,100477.41
2022-11-09T03:15:18.502Z,100484.44
2022-11-09T03:17:48.285Z,100480.00
2022-11-09T03:20:18.517Z,100488.75
2022-11-09T03:22:47.076Z,100483.38
2022-11-09T03:25:18.263Z,100486.97
2022-11-09T03:27:47.080Z,100496.41
2022-11-09T03:30:19.099Z,100487.69
2022-11-09T03:32:50.612Z,100488.59
2022-11-09T03:35:19.862Z,100495.53
2022-11-09T03:37:48.643Z,100490.19
2022-11-09T03:40:19.795Z,100491.84
2022-11-09T03:42:51.016Z,100491.84
2022-11-09T03:45:19.901Z,100484.13
2022-11-09T03:47:49.011Z,100481.41
2022-11-09T03:50:18.973Z,100480.50
2022-11-09T03:52:48.585Z,100483.75
2022-11-09T03:55:18.883Z,100475.88
2022-11-09T03:57:47.882Z,100474.16
2022-11-09T04:00:20.908Z,100465.44
2022-11-09T04:02:51.758Z,100466.22
2022-11-09T04:05:21.373Z,100458.31
2022-11-09T04:07:53.976Z,100453.75
2022-11-09T04:10:26.866Z,100456.34
2022-11-09T04:12:55.756Z,100453.88
2022-11-09T04:15:24.559Z,100454.56
2022-11-09T04:17:58.850Z,100450.31
2022-11-09T04:20:29.698Z,100452.91
2022-11-09T04:22:59.968Z,100455.53
2022-11-09T04:25:34.277Z,100462.44
2022-11-09T04:28:05.390Z,100456.50
2022-11-09T04:30:36.863Z,100455.53
2022-11-09T04:33:06.118Z,100455.66
2022-11-09T04:35:36.072Z,100450.56
2022-11-09T04:38:08.815Z,100460.22
2022-11-09T04:40:39.231Z,100459.47
2022-11-09T04:43:11.827Z,100472.44
2022-11-09T04:45:41.181Z,100465.50
2022-11-09T04:48:12.160Z,100467.34
2022-11-09T04:50:40.956Z,100470.91
2022-11-09T04:53:12.460Z,100468.25
2022-11-09T04:55:43.083Z,100461.34
2022-11-09T04:58:11.888Z,100461.50
2022-11-09T05:00:41.026Z,100457.25
2022-11-09T05:03:10.048Z,100459.84
2022-11-09T05:05:44.027Z,100456.53
2022-11-09T05:08:15.691Z,100464.41
2022-11-09T05:10:45.916Z,100455.88
2022-11-09T05:13:15.704Z,100457.84
2022-11-09T05:15:44.569Z,100454.34
2022-11-09T05:18:13.173Z,100457.66
2022-11-09T05:20:41.951Z,100458.63
2022-11-09T05:23:29.114Z,100456.19
2022-11-09T05:25:59.235Z,100455.31
2022-11-09T05:28:27.760Z,100452.63
2022-11-09T05:30:56.531Z,100459.81
2022-11-09T05:33:25.040Z,100457.19
2022-11-09T05:35:56.133Z,100464.25
2022-11-09T05:38:25.820Z,100469.47
2022-11-09T05:40:55.567Z,100463.53
2022-11-09T05:43:25.619Z,100462.75
2022-11-09T05:45:54.435Z,100466.28
2022-11-09T05:48:22.953Z,100462.69
2022-11-09T05:50:51.902Z,100465.16
2022-11-09T05:53:25.943Z,100459.09
2022-11-09T05:55:54.931Z,100462.47
2022-11-09T05:58:24.784Z,100466.84
2022-11-09T06:00:53.580Z,100461.84
2022-11-09T06:03:22.366Z,100466.22
2022-11-09T06:05:51.481Z,100469.72
2022-11-09T06:08:19.996Z,100468.81
2022-11-09T06:10:48.795Z,100468.69
2022-11-09T06:13:17.575Z,100470.25
2022-11-09T06:15:55.126Z,100463.19
2022-11-09T06:18:24.302Z,100467.38
2022-11-09T06:20:54.656Z,100469.00
2022-11-09T06:23:25.752Z,100465.34
2022-11-09T06:25:54.798Z,100466.06
2022-11-09T06:28:23.335Z,100475.66
2022-11-09T06:30:53.842Z,100484.84
2022-11-09T06:33:22.697Z,100476.53
2022-11-09T06:35:56.059Z,100478.09
2022-11-09T06:38:26.472Z,100474.25
2022-11-09T06:40:58.199Z,100479.94
2022-11-09T06:43:27.651Z,100482.34
2022-11-09T06:45:58.087Z,100478.78
2022-11-09T06:48:26.590Z,100473.13
2022-11-09T06:50:55.452Z,100473.75
2022-11-09T06:53:24.249Z,100461.19
2022-11-09T06:55:53.207Z,100470.50
2022-11-09T06:58:22.067Z,100463.28
2022-11-09T07:00:51.017Z,100459.31
2022-11-09T07:03:23.939Z,100461.50
2022-11-09T07:05:53.886Z,100462.81
2022-11-09T07:08:22.435Z,100457.28
2022-11-09T07:10:51.310Z,100457.69
2022-11-09T07:13:20.241Z,100457.69
2022-11-09T07:15:55.375Z,100447.78
2022-11-09T07:18:25.442Z,100461.06
2022-11-09T07:20:54.409Z,100460.69
2022-11-09T07:23:23.195Z,100465.84
2022-11-09T07:25:52.406Z,100466.91
2022-11-09T07:28:20.889Z,100464.59
2022-11-09T07:30:52.905Z,100453.81
2022-11-09T07:33:22.787Z,100457.03
2022-11-09T07:35:53.319Z,100463.34
2022-11-09T07:38:21.934Z,100464.78
2022-11-09T07:40:50.716Z,100460.81
2022-11-09T07:43:19.733Z,100463.13
2022-11-09T07:45:52.783Z,100467.16
2022-11-09T07:48:21.736Z,100464.66
2022-11-09T07:50:52.129Z,100463.31
2022-11-09T07:53:21.502Z,100459.34
2022-11-09T07:55:58.638Z,100461.19
2022-11-09T07:58:28.163Z,100462.31
2022-11-09T08:00:58.182Z,100465.72
2022-11-09T08:03:27.408Z,100467.75
2022-11-09T08:05:59.112Z,100469.25
2022-11-09T08:08:27.683Z,100461.63
2022-11-09T08:10:59.011Z,100464.84
2022-11-09T08:13:28.360Z,100459.06
2022-11-09T08:15:57.327Z,100459.06
2022-11-09T08:18:25.837Z,100456.28
2022-11-09T08:20:54.636Z,100458.19
2022-11-09T08:23:24.508Z,100460.38
2022-11-09T08:25:53.303Z,100454.31
2022-11-09T08:28:22.870Z,100458.50
2022-11-09T08:30:58.369Z,100456.63
2022-11-09T08:33:29.123Z,100459.91
2022-11-09T08:35:58.204Z,100449.16
2022-11-09T08:38:28.134Z,100459.00
2022-11-09T08:41:00.266Z,100456.03
2022-11-09T08:43:28.871Z,100455.88
2022-11-09T08:45:57.736Z,100442.88
2022-11-09T08:48:26.569Z,100452.25
2022-11-09T08:50:57.894Z,100451.63
2022-11-09T08:53:30.653Z,100445.72
2022-11-09T08:55:59.712Z,100454.34
2022-11-09T08:58:28.483Z,100450.59
2022-11-09T09:00:57.243Z,100454.91
2022-11-09T09:03:26.070Z,100447.78
2022-11-09T09:05:54.882Z,100448.44
2022-11-09T09:08:23.874Z,100447.09
2022-11-09T09:10:54.186Z,100453.06
2022-11-09T09:13:23.312Z,100450.16
2022-11-09T09:15:52.125Z,100468.66
2022-11-09T09:18:20.939Z,100463.28
2022-11-09T09:20:50.012Z,100458.59
2022-11-09T09:23:18.679Z,100463.19
2022-11-09T09:25:47.668Z,100454.09
2022-11-09T09:28:19.198Z,100459.50
2022-11-09T09:30:48.240Z,100452.44
2022-11-09T09:33:16.745Z,100459.41
2022-11-09T09:35:45.571Z,100463.81
2022-11-09T09:38:14.063Z,100469.19
2022-11-09T09:40:59.974Z,100466.75
2022-11-09T09:43:41.680Z,100472.03
2022-11-09T09:46:25.166Z,100466.34
2022-11-09T09:49:02.375Z,100461.91
2022-11-09T09:52:06.743Z,100450.25
2022-11-09T09:54:42.114Z,100453.81
2022-11-09T09:57:22.348Z,100452.03
2022-11-09T10:00:01.169Z,100455.81
2022-11-09T10:02:38.016Z,100450.34
2022-11-09T10:05:12.582Z,100453.69
2022-11-09T10:07:57.889Z,100457.50
2022-11-09T10:11:01.475Z,100454.53
2022-11-09T10:13:56.973Z,100460.88
2022-11-09T10:16:38.492Z,100453.06
2022-11-09T10:19:36.956Z,100452.75
2022-11-09T10:22:15.128Z,100455.41
2022-11-09T10:25:18.945Z,100444.44
2022-11-09T10:27:53.700Z,100448.44
2022-11-09T10:30:34.743Z,100452.13
2022-11-09T10:33:25.783Z,100439.06
2022-11-09T10:36:14.100Z,100442.97
2022-11-09T10:38:56.319Z,100434.56
2022-11-09T10:41:46.875Z,100430.31
2022-11-09T10:44:33.987Z,100439.56
2022-11-09T10:47:26.369Z,100440.47
2022-11-09T10:50:33.482Z,100434.91
2022-11-09T10:53:24.905Z,100439.47
2022-11-09T10:56:20.732Z,100437.97
2022-11-09T10:59:44.902Z,100438.22
2022-11-09T11:02:46.397Z,100435.44
2022-11-09T11:05:36.186Z,100443.91
2022-11-09T11:08:32.893Z,100434.53
2022-11-09T11:11:33.631Z,100441.00
2022-11-09T11:14:30.791Z,100430.94
2022-11-09T11:17:27.300Z,100435.59
2022-11-09T11:20:33.593Z,100432.38
2022-11-09T11:23:24.986Z,100423.38
2022-11-09T11:26:40.056Z,100433.56
2022-11-09T11:29:39.979Z,100433.25
2022-11-09T11:32:27.773Z,100428.19
2022-11-09T11:35:19.551Z,100428.59
2022-11-09T11:38:23.706Z,100418.25
2022-11-09T11:41:52.891Z,100416.13
2022-11-09T11:45:33.419Z,100424.16
2022-11-09T11:48:36.230Z,100428.97
2022-11-09T11:51:37.564Z,100430.75
2022-11-09T11:54:38.323Z,100430.03
2022-11-09T11:57:44.116Z,100444.06
2022-11-09T12:00:42.102Z,100439.50
2022-11-09T12:03:51.874Z,100443.72
2022-11-09T12:07:00.955Z,100444.63
2022-11-09T12:10:07.669Z,100441.66
2022-11-09T12:13:10.824Z,100442.47
2022-11-09T12:16:09.210Z,100424.91
2022-11-09T12:19:15.354Z,100421.53
2022-11-09T12:22:13.437Z,100419.03
2022-11-09T12:25:12.653Z,100416.25
2022-11-09T12:28:26.757Z,100418.88
2022-11-09T12:31:31.241Z,100416.97
2022-11-09T12:34:26.619Z,100419.97
2022-11-09T12:37:17.259Z,100417.56
2022-11-09T12:40:22.934Z,100410.47
2022-11-09T12:43:20.934Z,100411.66
2022-11-09T12:46:12.441Z,100415.09
2022-11-09T12:49:04.716Z,100409.75
2022-11-09T12:51:58.807Z,100418.84
2022-11-09T12:54:50.175Z,100420.72
2022-11-09T12:57:37.679Z,100429.13
2022-11-09T13:00:52.817Z,100418.94
2022-11-09T13:03:52.632Z,100428.09
2022-11-09T13:06:39.971Z,100434.53
2022-11-09T13:09:39.821Z,100431.28
2022-11-09T13:12:38.734Z,100441.59
2022-11-09T13:15:28.697Z,100439.03
2022-11-09T13:18:51.257Z,100441.38
2022-11-09T13:21:42.744Z,100432.22
2022-11-09T13:24:56.452Z,100422.03
2022-11-09T13:27:47.239Z,100422.25
2022-11-09T13:30:43.693Z,100412.38
2022-11-09T13:33:32.660Z,100415.31
2022-11-09T13:36:22.202Z,100411.91
2022-11-09T13:39:33.367Z,100411.72
2022-11-09T13:42:31.795Z,100419.53
2022-11-09T13:45:30.074Z,100418.91
2022-11-09T13:48:41.465Z,100419.88
2022-11-09T13:51:46.143Z,100416.72
2022-11-09T13:54:35.740Z,100413.47
2022-11-09T13:57:25.766Z,100411.88
2022-11-09T14:00:23.353Z,100414.00
2022-11-09T14:03:22.930Z,100420.97
2022-11-09T14:06:14.534Z,100425.59
2022-11-09T14:09:03.907Z,100436.63
2022-11-09T14:12:15.061Z,100430.53
2022-11-09T14:15:21.004Z,100426.41
2022-11-09T14:18:26.623Z,100427.16
2022-11-09T14:34:40.615Z,100458.13
2022-11-09T14:37:28.641Z,100456.13
2022-11-09T14:40:24.036Z,100458.13
2022-11-09T14:43:28.633Z,100455.59
2022-11-09T14:46:21.429Z,100449.69
2022-11-09T14:49:12.997Z,100452.63
2022-11-09T14:52:02.766Z,100455.16
2022-11-09T14:54:51.336Z,100448.81
2022-11-09T14:57:39.528Z,100449.78
2022-11-09T15:00:34.071Z,100452.09
2022-11-09T15:03:28.278Z,100446.38
2022-11-09T15:06:18.975Z,100446.88
2022-11-09T15:09:15.980Z,100442.66
2022-11-09T15:12:04.463Z,100447.28
2022-11-09T15:14:54.841Z,100449.16
2022-11-09T15:17:49.179Z,100452.59
2022-11-09T15:20:36.445Z,100436.75
2022-11-09T15:23:37.231Z,100434.53
2022-11-09T15:26:37.497Z,100446.53
2022-11-09T15:29:35.504Z,100441.75
2022-11-09T15:32:23.895Z,100431.13
2022-11-09T15:35:18.445Z,100437.44
2022-11-09T15:38:05.569Z,100436.44
2022-11-09T15:40:52.891Z,100438.22
2022-11-09T15:43:41.801Z,100427.34
2022-11-09T15:46:36.179Z,100431.28
2022-11-09T15:49:27.053Z,100435.41
2022-11-09T15:52:14.877Z,100443.09
2022-11-09T15:55:01.739Z,100436.72
2022-11-09T15:57:50.149Z,100432.88
2022-11-09T16:00:38.621Z,100436.25
2022-11-09T16:03:25.789Z,100440.84
2022-11-09T16:06:17.768Z,100436.75
2022-11-09T16:09:05.534Z,100439.75
2022-11-09T16:11:52.424Z,100437.94
2022-11-09T16:14:39.977Z,100426.81
2022-11-09T16:17:30.534Z,100423.25
2022-11-09T16:20:18.773Z,100426.81
2022-11-09T16:23:05.685Z,100421.66
2022-11-09T16:25:53.389Z,100428.50
2022-11-09T16:28:40.918Z,100429.78
2022-11-09T16:31:50.848Z,100425.28
2022-11-09T16:34:36.895Z,100427.25
2022-11-09T16:37:25.259Z,100422.41
2022-11-09T16:40:16.937Z,100435.53
2022-11-09T16:43:04.279Z,100428.22
2022-11-09T16:45:51.841Z,100437.88
2022-11-09T16:48:39.445Z,100435.16
2022-11-09T16:51:27.850Z,100438.44
2022-11-09T16:54:15.305Z,100452.63
2022-11-09T16:57:02.734Z,100452.13
2022-11-09T16:59:50.099Z,100445.66
2022-11-09T17:02:36.922Z,100431.06
2022-11-09T17:05:24.520Z,100435.84
2022-11-09T17:08:13.965Z,100415.41
2022-11-09T17:11:01.464Z,100433.38
2022-11-09T17:13:48.473Z,100436.19
2022-11-09T17:16:36.597Z,100440.03
2022-11-09T17:19:23.884Z,100444.72
2022-11-09T17:22:11.698Z,100439.09
2022-11-09T17:25:00.480Z,100437.78
2022-11-09T17:27:47.996Z,100431.22
2022-11-09T17:30:35.760Z,100437.59
2022-11-09T17:33:24.758Z,100439.34
2022-11-09T17:36:14.717Z,100439.50
2022-11-09T17:39:02.571Z,100430.31
2022-11-09T17:41:51.663Z,100435.56
2022-11-09T17:44:39.364Z,100433.34
2022-11-09T17:47:27.098Z,100432.59
2022-11-09T17:50:14.603Z,100431.75
2022-11-09T17:53:01.998Z,100434.75
2022-11-09T17:55:50.805Z,100433.75
2022-11-09T17:58:43.959Z,100438.25
2022-11-09T18:01:32.393Z,100436.81
2022-11-09T18:04:22.391Z,100421.06
2022-11-09T18:07:09.950Z,100435.41
2022-11-09T18:09:57.597Z,100436.69
2022-11-09T18:12:44.963Z,100431.72
2022-11-09T18:15:34.316Z,100431.97
2022-11-09T18:18:22.250Z,100434.69
2022-11-09T18:21:11.193Z,100434.50
2022-11-09T18:23:58.533Z,100440.16
2022-11-09T18:26:46.065Z,100434.25
2022-11-09T18:29:33.521Z,100439.41
2022-11-09T18:32:22.112Z,100441.19
2022-11-09T18:35:09.933Z,100444.66
2022-11-09T18:37:57.257Z,100441.06
2022-11-09T18:40:44.558Z,100431.63
2022-11-09T18:43:33.295Z,100441.94
2022-11-09T18:46:22.500Z,100445.47
2022-11-09T18:49:14.257Z,100448.09
2022-11-09T18:52:02.141Z,100445.13
2022-11-09T18:54:49.593Z,100448.75
2022-11-09T18:57:36.919Z,100444.81
2022-11-09T19:00:24.002Z,100450.06
2022-11-09T19:03:16.147Z,100449.31
2022-11-09T19:06:09.406Z,100454.72
2022-11-09T19:09:14.698Z,100458.09
2022-11-09T19:12:08.065Z,100456.50
2022-11-09T19:14:55.341Z,100457.53
2022-11-09T19:17:42.126Z,100457.53
2022-11-09T19:20:30.131Z,100455.00
2022-11-09T19:23:18.360Z,100470.78
2022-11-09T19:26:05.967Z,100470.13
2022-11-09T19:28:53.154Z,100470.34
2022-11-09T19:31:43.387Z,100469.47
2022-11-09T19:34:30.849Z,100474.78
2022-11-09T19:37:18.286Z,100479.44
2022-11-09T19:40:08.561Z,100472.94
2022-11-09T19:42:56.292Z,100466.38
2022-11-09T19:45:44.023Z,100462.34
2022-11-09T19:48:32.078Z,100462.50
2022-11-09T19:51:19.788Z,100466.03
2022-11-09T19:54:08.052Z,100460.28
2022-11-09T19:56:56.583Z,100454.31
2022-11-09T19:59:44.237Z,100455.25
2022-11-09T20:02:32.091Z,100451.22
2022-11-09T20:05:19.469Z,100451.59
2022-11-09T20:08:06.654Z,100455.19
2022-11-09T20:10:55.216Z,100465.66
2022-11-09T20:13:42.873Z,100464.31
2022-11-09T20:16:33.055Z,100469.81
2022-11-09T20:19:21.733Z,100474.44
2022-11-09T20:22:09.097Z,100472.00
2022-11-09T20:24:56.657Z,100462.53
2022-11-09T20:27:44.233Z,100466.34
2022-11-09T20:30:32.421Z,100464.03
2022-11-09T20:33:20.136Z,100468.66
2022-11-09T20:36:08.412Z,100466.47
2022-11-09T20:38:56.379Z,100469.31
2022-11-09T20:41:43.385Z,100474.72
2022-11-09T20:44:30.799Z,100470.66
2022-11-09T20:47:41.920Z,100469.78
2022-11-09T20:50:27.471Z,100462.13
2022-11-09T20:53:15.691Z,100463.25
2022-11-09T20:56:03.208Z,100461.81
2022-11-09T20:58:51.011Z,100468.28
2022-11-09T21:01:39.406Z,100460.75
2022-11-09T21:04:27.895Z,100463.63
2022-11-09T21:07:15.519Z,100454.31
2022-11-09T21:10:02.757Z,100453.47
2022-11-09T21:12:54.183Z,100460.41
2022-11-09T21:15:41.467Z,100462.13
2022-11-09T21:18:28.936Z,100462.47
2022-11-09T21:21:20.546Z,100462.84
2022-11-09T21:24:27.796Z,100461.69
2022-11-09T21:27:32.442Z,100468.38
2022-11-09T21:30:19.947Z,100456.53
2022-11-09T21:33:07.173Z,100454.44
2022-11-09T21:35:54.655Z,100453.91
2022-11-09T21:38:42.946Z,100456.72
2022-11-09T21:41:38.996Z,100459.41
2022-11-09T21:44:28.492Z,100466.56
2022-11-09T21:47:16.068Z,100470.31
2022-11-09T21:50:06.961Z,100465.69
2022-11-09T21:52:56.788Z,100466.09
2022-11-09T21:55:45.046Z,100459.63
2022-11-09T21:58:33.268Z,100468.66
2022-11-09T22:01:21.302Z,100473.19
2022-11-09T22:04:09.596Z,100460.28
2022-11-09T22:06:57.181Z,100467.59
2022-11-09T22:10:08.912Z,100466.13
2022-11-09T22:13:15.285Z,100469.75
2022-11-09T22:16:09.831Z,100469.66
2022-11-09T22:19:14.901Z,100471.47
2022-11-09T22:22:02.267Z,100470.13
2022-11-09T22:24:50.057Z,100468.69
2022-11-09T22:27:37.530Z,100468.75
2022-11-09T22:30:25.741Z,100468.13
2022-11-09T22:33:14.535Z,100470.84
2022-11-09T22:36:03.857Z,100470.03
2022-11-09T22:38:51.497Z,100471.00
2022-11-09T22:41:38.223Z,100466.91
2022-11-09T22:44:25.735Z,100464.47
2022-11-09T22:47:13.995Z,100465.59
2022-11-09T22:50:01.448Z,100455.38
2022-11-09T22:52:53.333Z,100464.06
2022-11-09T22:55:41.389Z,100469.84
2022-11-09T22:58:29.274Z,100462.94
2022-11-09T23:01:19.728Z,100457.97
2022-11-09T23:04:09.985Z,100459.69
2022-11-09T23:06:57.508Z,100470.75
2022-11-09T23:09:44.853Z,100467.84
2022-11-09T23:12:34.542Z,100465.78
2022-11-09T23:15:21.437Z,100468.53
2022-11-09T23:18:28.328Z,100461.56
2022-11-09T23:21:17.979Z,100460.56
2022-11-09T23:24:28.459Z,100466.63
2022-11-09T23:27:15.298Z,100477.91
2022-11-09T23:30:02.732Z,100478.56
2022-11-09T23:32:49.743Z,100478.56
2022-11-09T23:35:37.242Z,100488.22
2022-11-09T23:38:25.748Z,100493.44
2022-11-09T23:41:15.705Z,100501.06
2022-11-09T23:44:02.620Z,100497.53
2022-11-09T23:46:50.175Z,100488.09
2022-11-09T23:49:37.326Z,100493.94
2022-11-09T23:52:24.721Z,100498.22
2022-11-09T23:55:13.854Z,100475.69
2022-11-09T23:58:03.090Z,100483.38
